sensor_id;sensor_type;location;lat;lon;timestamp;P1;durP1;ratioP1;P2;durP2;ratioP2
62037;SDS011;47991;42.974;12.082;2024-01-07T00:01:28;13.90;;;8.70;;
62037;SDS011;47991;42.974;12.082;2024-01-07T00:03:55;15.30;;;10.20;;
62037;SDS011;47991;42.974;12.082;2024-01-07T00:06:22;15.60;;;9.70;;
62037;SDS011;47991;42.974;12.082;2024-01-07T00:08:49;13.70;;;8.90;;
62037;SDS011;47991;42.974;12.082;2024-01-07T00:11:16;16.50;;;9.50;;
62037;SDS011;47991;42.974;12.082;2024-01-07T00:13:43;13.70;;;8.90;;
62037;SDS011;47991;42.974;12.082;2024-01-07T00:16:12;13.50;;;8.80;;
62037;SDS011;47991;42.974;12.082;2024-01-07T00:18:39;12.80;;;7.60;;
62037;SDS011;47991;42.974;12.082;2024-01-07T00:21:06;14.60;;;8.40;;
62037;SDS011;47991;42.974;12.082;2024-01-07T00:23:33;17.40;;;8.50;;
62037;SDS011;47991;42.974;12.082;2024-01-07T00:26:00;13.20;;;8.70;;
62037;SDS011;47991;42.974;12.082;2024-01-07T00:28:28;15.70;;;8.00;;
62037;SDS011;47991;42.974;12.082;2024-01-07T00:30:56;16.80;;;10.20;;
62037;SDS011;47991;42.974;12.082;2024-01-07T00:33:23;15.90;;;9.80;;
62037;SDS011;47991;42.974;12.082;2024-01-07T00:35:50;15.30;;;10.50;;
62037;SDS011;47991;42.974;12.082;2024-01-07T00:38:17;20.60;;;12.30;;
62037;SDS011;47991;42.974;12.082;2024-01-07T00:40:43;16.30;;;11.40;;
62037;SDS011;47991;42.974;12.082;2024-01-07T00:43:10;15.50;;;11.20;;
62037;SDS011;47991;42.974;12.082;2024-01-07T00:45:38;15.00;;;8.90;;
62037;SDS011;47991;42.974;12.082;2024-01-07T00:48:05;17.10;;;10.70;;
62037;SDS011;47991;42.974;12.082;2024-01-07T00:50:32;18.30;;;10.90;;
62037;SDS011;47991;42.974;12.082;2024-01-07T00:52:59;18.70;;;12.20;;
62037;SDS011;47991;42.974;12.082;2024-01-07T00:55:27;17.90;;;12.10;;
62037;SDS011;47991;42.974;12.082;2024-01-07T00:57:54;16.70;;;11.80;;
62037;SDS011;47991;42.974;12.082;2024-01-07T01:00:21;19.20;;;13.50;;
62037;SDS011;47991;42.974;12.082;2024-01-07T01:02:48;18.80;;;12.40;;
62037;SDS011;47991;42.974;12.082;2024-01-07T01:05:16;20.90;;;14.00;;
62037;SDS011;47991;42.974;12.082;2024-01-07T01:07:42;21.60;;;14.20;;
62037;SDS011;47991;42.974;12.082;2024-01-07T01:10:09;19.80;;;13.10;;
62037;SDS011;47991;42.974;12.082;2024-01-07T01:12:36;19.20;;;13.10;;
62037;SDS011;47991;42.974;12.082;2024-01-07T01:15:04;18.60;;;13.40;;
62037;SDS011;47991;42.974;12.082;2024-01-07T01:17:31;20.30;;;13.50;;
62037;SDS011;47991;42.974;12.082;2024-01-07T01:19:58;16.40;;;10.80;;
62037;SDS011;47991;42.974;12.082;2024-01-07T01:22:25;17.10;;;11.10;;
62037;SDS011;47991;42.974;12.082;2024-01-07T01:24:53;16.90;;;11.10;;
62037;SDS011;47991;42.974;12.082;2024-01-07T01:27:20;15.60;;;10.60;;
62037;SDS011;47991;42.974;12.082;2024-01-07T01:29:47;15.80;;;10.10;;
62037;SDS011;47991;42.974;12.082;2024-01-07T01:32:14;15.00;;;9.90;;
62037;SDS011;47991;42.974;12.082;2024-01-07T01:34:41;15.30;;;10.60;;
62037;SDS011;47991;42.974;12.082;2024-01-07T01:37:08;16.20;;;11.30;;
62037;SDS011;47991;42.974;12.082;2024-01-07T01:39:38;17.00;;;11.40;;
62037;SDS011;47991;42.974;12.082;2024-01-07T01:42:07;16.00;;;10.90;;
62037;SDS011;47991;42.974;12.082;2024-01-07T01:44:34;17.00;;;11.60;;
62037;SDS011;47991;42.974;12.082;2024-01-07T01:47:02;15.30;;;10.40;;
62037;SDS011;47991;42.974;12.082;2024-01-07T01:49:29;15.70;;;11.20;;
62037;SDS011;47991;42.974;12.082;2024-01-07T01:51:56;15.50;;;10.60;;
62037;SDS011;47991;42.974;12.082;2024-01-07T01:54:24;16.00;;;11.00;;
62037;SDS011;47991;42.974;12.082;2024-01-07T01:56:51;16.50;;;11.10;;
62037;SDS011;47991;42.974;12.082;2024-01-07T01:59:19;16.10;;;10.60;;
62037;SDS011;47991;42.974;12.082;2024-01-07T02:01:47;17.30;;;13.00;;
62037;SDS011;47991;42.974;12.082;2024-01-07T02:04:15;17.00;;;11.80;;
62037;SDS011;47991;42.974;12.082;2024-01-07T02:06:44;16.90;;;12.50;;
62037;SDS011;47991;42.974;12.082;2024-01-07T02:09:12;18.40;;;12.20;;
62037;SDS011;47991;42.974;12.082;2024-01-07T02:11:39;16.60;;;12.00;;
62037;SDS011;47991;42.974;12.082;2024-01-07T02:14:06;18.10;;;11.80;;
62037;SDS011;47991;42.974;12.082;2024-01-07T02:16:33;19.30;;;12.20;;
62037;SDS011;47991;42.974;12.082;2024-01-07T02:18:59;19.40;;;12.40;;
62037;SDS011;47991;42.974;12.082;2024-01-07T02:21:26;16.80;;;12.10;;
62037;SDS011;47991;42.974;12.082;2024-01-07T02:23:55;17.00;;;12.50;;
62037;SDS011;47991;42.974;12.082;2024-01-07T02:26:21;17.70;;;11.40;;
62037;SDS011;47991;42.974;12.082;2024-01-07T02:28:48;15.40;;;11.00;;
62037;SDS011;47991;42.974;12.082;2024-01-07T02:31:15;16.00;;;11.60;;
62037;SDS011;47991;42.974;12.082;2024-01-07T02:33:42;18.50;;;10.90;;
62037;SDS011;47991;42.974;12.082;2024-01-07T02:36:09;16.80;;;11.40;;
62037;SDS011;47991;42.974;12.082;2024-01-07T02:38:37;14.80;;;10.60;;
62037;SDS011;47991;42.974;12.082;2024-01-07T02:41:04;13.70;;;9.80;;
62037;SDS011;47991;42.974;12.082;2024-01-07T02:43:31;13.10;;;9.50;;
62037;SDS011;47991;42.974;12.082;2024-01-07T02:45:58;13.60;;;9.20;;
62037;SDS011;47991;42.974;12.082;2024-01-07T02:48:24;13.70;;;9.50;;
62037;SDS011;47991;42.974;12.082;2024-01-07T02:50:51;12.00;;;8.40;;
62037;SDS011;47991;42.974;12.082;2024-01-07T02:53:18;15.50;;;9.80;;
62037;SDS011;47991;42.974;12.082;2024-01-07T02:55:45;15.70;;;10.20;;
62037;SDS011;47991;42.974;12.082;2024-01-07T02:58:12;14.30;;;10.20;;
62037;SDS011;47991;42.974;12.082;2024-01-07T03:00:39;14.70;;;9.90;;
62037;SDS011;47991;42.974;12.082;2024-01-07T03:03:05;15.00;;;10.30;;
62037;SDS011;47991;42.974;12.082;2024-01-07T03:05:32;14.20;;;9.70;;
62037;SDS011;47991;42.974;12.082;2024-01-07T03:08:00;14.40;;;9.50;;
62037;SDS011;47991;42.974;12.082;2024-01-07T03:10:27;13.60;;;9.70;;
62037;SDS011;47991;42.974;12.082;2024-01-07T03:12:54;13.80;;;9.50;;
62037;SDS011;47991;42.974;12.082;2024-01-07T03:15:20;13.70;;;9.20;;
62037;SDS011;47991;42.974;12.082;2024-01-07T03:17:47;13.10;;;9.90;;
62037;SDS011;47991;42.974;12.082;2024-01-07T03:20:14;12.60;;;8.30;;
62037;SDS011;47991;42.974;12.082;2024-01-07T03:22:41;10.80;;;7.10;;
62037;SDS011;47991;42.974;12.082;2024-01-07T03:25:08;9.90;;;6.00;;
62037;SDS011;47991;42.974;12.082;2024-01-07T03:27:35;11.10;;;6.10;;
62037;SDS011;47991;42.974;12.082;2024-01-07T03:30:02;8.60;;;5.20;;
62037;SDS011;47991;42.974;12.082;2024-01-07T03:32:29;8.60;;;5.20;;
62037;SDS011;47991;42.974;12.082;2024-01-07T03:34:56;9.30;;;5.10;;
62037;SDS011;47991;42.974;12.082;2024-01-07T03:37:23;7.60;;;4.40;;
62037;SDS011;47991;42.974;12.082;2024-01-07T03:39:50;9.10;;;5.00;;
62037;SDS011;47991;42.974;12.082;2024-01-07T03:42:17;7.00;;;4.40;;
62037;SDS011;47991;42.974;12.082;2024-01-07T03:44:43;8.10;;;4.00;;
62037;SDS011;47991;42.974;12.082;2024-01-07T03:47:10;8.00;;;3.90;;
62037;SDS011;47991;42.974;12.082;2024-01-07T03:49:37;7.20;;;3.70;;
62037;SDS011;47991;42.974;12.082;2024-01-07T03:52:05;6.90;;;3.60;;
62037;SDS011;47991;42.974;12.082;2024-01-07T03:54:33;6.50;;;3.60;;
62037;SDS011;47991;42.974;12.082;2024-01-07T03:57:00;7.00;;;3.70;;
62037;SDS011;47991;42.974;12.082;2024-01-07T03:59:27;6.70;;;3.60;;
62037;SDS011;47991;42.974;12.082;2024-01-07T04:01:56;7.30;;;4.50;;
62037;SDS011;47991;42.974;12.082;2024-01-07T04:04:24;8.80;;;4.60;;
62037;SDS011;47991;42.974;12.082;2024-01-07T04:06:50;5.70;;;3.30;;
62037;SDS011;47991;42.974;12.082;2024-01-07T04:09:17;6.00;;;3.40;;
62037;SDS011;47991;42.974;12.082;2024-01-07T04:11:44;5.60;;;3.30;;
62037;SDS011;47991;42.974;12.082;2024-01-07T04:14:13;5.60;;;2.90;;
62037;SDS011;47991;42.974;12.082;2024-01-07T04:16:42;7.20;;;3.60;;
62037;SDS011;47991;42.974;12.082;2024-01-07T04:19:09;7.30;;;3.20;;
62037;SDS011;47991;42.974;12.082;2024-01-07T04:21:35;6.10;;;2.90;;
62037;SDS011;47991;42.974;12.082;2024-01-07T04:24:02;6.10;;;3.40;;
62037;SDS011;47991;42.974;12.082;2024-01-07T04:26:29;7.30;;;4.30;;
62037;SDS011;47991;42.974;12.082;2024-01-07T04:28:56;6.10;;;3.10;;
62037;SDS011;47991;42.974;12.082;2024-01-07T04:31:23;6.80;;;3.30;;
62037;SDS011;47991;42.974;12.082;2024-01-07T04:33:50;6.70;;;3.60;;
62037;SDS011;47991;42.974;12.082;2024-01-07T04:36:17;6.00;;;3.20;;
62037;SDS011;47991;42.974;12.082;2024-01-07T04:38:47;6.30;;;3.40;;
62037;SDS011;47991;42.974;12.082;2024-01-07T04:41:13;5.50;;;3.20;;
62037;SDS011;47991;42.974;12.082;2024-01-07T04:43:42;6.60;;;3.40;;
62037;SDS011;47991;42.974;12.082;2024-01-07T04:46:10;5.70;;;2.90;;
62037;SDS011;47991;42.974;12.082;2024-01-07T04:48:37;6.80;;;3.70;;
62037;SDS011;47991;42.974;12.082;2024-01-07T04:51:04;5.60;;;3.10;;
62037;SDS011;47991;42.974;12.082;2024-01-07T04:53:31;5.80;;;3.10;;
62037;SDS011;47991;42.974;12.082;2024-01-07T04:55:58;5.80;;;3.10;;
62037;SDS011;47991;42.974;12.082;2024-01-07T04:58:24;8.70;;;3.20;;
62037;SDS011;47991;42.974;12.082;2024-01-07T05:00:51;5.50;;;3.00;;
62037;SDS011;47991;42.974;12.082;2024-01-07T05:03:19;7.20;;;3.40;;
62037;SDS011;47991;42.974;12.082;2024-01-07T05:05:46;7.10;;;3.00;;
62037;SDS011;47991;42.974;12.082;2024-01-07T05:08:12;7.70;;;3.40;;
62037;SDS011;47991;42.974;12.082;2024-01-07T05:10:39;7.40;;;3.70;;
62037;SDS011;47991;42.974;12.082;2024-01-07T05:13:06;7.50;;;3.80;;
62037;SDS011;47991;42.974;12.082;2024-01-07T05:15:33;7.70;;;3.40;;
62037;SDS011;47991;42.974;12.082;2024-01-07T05:18:00;7.50;;;3.50;;
62037;SDS011;47991;42.974;12.082;2024-01-07T05:20:27;8.20;;;3.70;;
62037;SDS011;47991;42.974;12.082;2024-01-07T05:22:54;7.10;;;3.50;;
62037;SDS011;47991;42.974;12.082;2024-01-07T05:25:24;7.30;;;3.30;;
62037;SDS011;47991;42.974;12.082;2024-01-07T05:27:51;5.70;;;2.80;;
62037;SDS011;47991;42.974;12.082;2024-01-07T05:30:17;3.80;;;2.20;;
62037;SDS011;47991;42.974;12.082;2024-01-07T05:32:44;4.20;;;2.00;;
62037;SDS011;47991;42.974;12.082;2024-01-07T05:35:11;5.20;;;2.20;;
62037;SDS011;47991;42.974;12.082;2024-01-07T05:37:38;4.20;;;2.20;;
62037;SDS011;47991;42.974;12.082;2024-01-07T05:40:07;6.50;;;2.30;;
62037;SDS011;47991;42.974;12.082;2024-01-07T05:42:35;6.00;;;2.60;;
62037;SDS011;47991;42.974;12.082;2024-01-07T05:45:01;3.20;;;1.90;;
62037;SDS011;47991;42.974;12.082;2024-01-07T05:47:29;3.50;;;1.80;;
62037;SDS011;47991;42.974;12.082;2024-01-07T05:49:56;2.90;;;1.70;;
62037;SDS011;47991;42.974;12.082;2024-01-07T05:52:23;3.30;;;1.90;;
62037;SDS011;47991;42.974;12.082;2024-01-07T05:54:50;3.70;;;1.60;;
62037;SDS011;47991;42.974;12.082;2024-01-07T05:57:17;3.50;;;2.00;;
62037;SDS011;47991;42.974;12.082;2024-01-07T05:59:44;6.30;;;2.20;;
62037;SDS011;47991;42.974;12.082;2024-01-07T06:02:11;3.10;;;1.90;;
62037;SDS011;47991;42.974;12.082;2024-01-07T06:04:38;4.00;;;1.90;;
62037;SDS011;47991;42.974;12.082;2024-01-07T06:07:06;3.00;;;1.80;;
62037;SDS011;47991;42.974;12.082;2024-01-07T06:09:33;4.20;;;1.80;;
62037;SDS011;47991;42.974;12.082;2024-01-07T06:12:00;3.30;;;1.70;;
62037;SDS011;47991;42.974;12.082;2024-01-07T06:14:27;3.50;;;1.60;;
62037;SDS011;47991;42.974;12.082;2024-01-07T06:16:54;4.50;;;1.90;;
62037;SDS011;47991;42.974;12.082;2024-01-07T06:19:21;3.50;;;1.80;;
62037;SDS011;47991;42.974;12.082;2024-01-07T06:21:48;3.40;;;1.70;;
62037;SDS011;47991;42.974;12.082;2024-01-07T06:24:15;3.50;;;1.80;;
62037;SDS011;47991;42.974;12.082;2024-01-07T06:26:42;3.30;;;1.90;;
62037;SDS011;47991;42.974;12.082;2024-01-07T06:29:09;3.30;;;1.80;;
62037;SDS011;47991;42.974;12.082;2024-01-07T06:31:44;2.60;;;1.60;;
62037;SDS011;47991;42.974;12.082;2024-01-07T06:34:12;3.00;;;1.50;;
62037;SDS011;47991;42.974;12.082;2024-01-07T06:36:41;1.80;;;1.30;;
62037;SDS011;47991;42.974;12.082;2024-01-07T06:39:08;1.70;;;1.40;;
62037;SDS011;47991;42.974;12.082;2024-01-07T06:41:35;2.20;;;1.30;;
62037;SDS011;47991;42.974;12.082;2024-01-07T06:44:02;2.10;;;1.30;;
62037;SDS011;47991;42.974;12.082;2024-01-07T06:46:29;0.90;;;0.90;;
62037;SDS011;47991;42.974;12.082;2024-01-07T06:48:56;2.00;;;1.20;;
62037;SDS011;47991;42.974;12.082;2024-01-07T06:51:23;3.10;;;1.70;;
62037;SDS011;47991;42.974;12.082;2024-01-07T06:53:50;2.30;;;1.60;;
62037;SDS011;47991;42.974;12.082;2024-01-07T06:56:17;2.30;;;1.40;;
62037;SDS011;47991;42.974;12.082;2024-01-07T06:58:44;2.30;;;1.60;;
62037;SDS011;47991;42.974;12.082;2024-01-07T07:01:11;2.40;;;1.60;;
62037;SDS011;47991;42.974;12.082;2024-01-07T07:03:39;3.00;;;1.80;;
62037;SDS011;47991;42.974;12.082;2024-01-07T07:06:07;2.60;;;1.60;;
62037;SDS011;47991;42.974;12.082;2024-01-07T07:08:34;2.80;;;1.40;;
62037;SDS011;47991;42.974;12.082;2024-01-07T07:11:01;2.30;;;1.60;;
62037;SDS011;47991;42.974;12.082;2024-01-07T07:13:28;2.90;;;1.50;;
62037;SDS011;47991;42.974;12.082;2024-01-07T07:15:55;4.70;;;1.60;;
62037;SDS011;47991;42.974;12.082;2024-01-07T07:18:22;2.30;;;1.50;;
62037;SDS011;47991;42.974;12.082;2024-01-07T07:20:49;1.60;;;1.30;;
62037;SDS011;47991;42.974;12.082;2024-01-07T07:23:16;2.10;;;1.50;;
62037;SDS011;47991;42.974;12.082;2024-01-07T07:25:43;2.80;;;1.70;;
62037;SDS011;47991;42.974;12.082;2024-01-07T07:28:10;2.50;;;1.40;;
62037;SDS011;47991;42.974;12.082;2024-01-07T07:30:37;1.40;;;1.20;;
62037;SDS011;47991;42.974;12.082;2024-01-07T07:33:04;6.90;;;2.00;;
62037;SDS011;47991;42.974;12.082;2024-01-07T07:35:31;3.80;;;1.50;;
62037;SDS011;47991;42.974;12.082;2024-01-07T07:37:58;1.50;;;1.20;;
62037;SDS011;47991;42.974;12.082;2024-01-07T07:40:25;1.60;;;1.30;;
62037;SDS011;47991;42.974;12.082;2024-01-07T07:42:52;2.40;;;1.40;;
62037;SDS011;47991;42.974;12.082;2024-01-07T07:45:18;4.20;;;1.60;;
62037;SDS011;47991;42.974;12.082;2024-01-07T07:47:45;1.40;;;1.10;;
62037;SDS011;47991;42.974;12.082;2024-01-07T07:50:12;1.30;;;1.00;;
62037;SDS011;47991;42.974;12.082;2024-01-07T07:52:41;1.20;;;1.00;;
62037;SDS011;47991;42.974;12.082;2024-01-07T07:55:10;2.80;;;1.10;;
62037;SDS011;47991;42.974;12.082;2024-01-07T07:57:37;12.90;;;6.50;;
62037;SDS011;47991;42.974;12.082;2024-01-07T08:00:07;6.70;;;2.80;;
62037;SDS011;47991;42.974;12.082;2024-01-07T08:02:34;5.00;;;2.10;;
62037;SDS011;47991;42.974;12.082;2024-01-07T08:05:01;4.60;;;1.90;;
62037;SDS011;47991;42.974;12.082;2024-01-07T08:07:28;3.90;;;1.60;;
62037;SDS011;47991;42.974;12.082;2024-01-07T08:09:55;1.60;;;1.00;;
62037;SDS011;47991;42.974;12.082;2024-01-07T08:12:24;1.80;;;1.20;;
62037;SDS011;47991;42.974;12.082;2024-01-07T08:14:51;21.10;;;14.80;;
62037;SDS011;47991;42.974;12.082;2024-01-07T08:17:17;5.20;;;2.70;;
62037;SDS011;47991;42.974;12.082;2024-01-07T08:19:44;2.90;;;1.60;;
62037;SDS011;47991;42.974;12.082;2024-01-07T08:22:11;15.50;;;10.70;;
62037;SDS011;47991;42.974;12.082;2024-01-07T08:24:38;51.40;;;37.10;;
62037;SDS011;47991;42.974;12.082;2024-01-07T08:27:05;7.80;;;4.50;;
62037;SDS011;47991;42.974;12.082;2024-01-07T08:29:32;6.50;;;2.70;;
62037;SDS011;47991;42.974;12.082;2024-01-07T08:31:59;7.90;;;4.40;;
62037;SDS011;47991;42.974;12.082;2024-01-07T08:34:26;3.00;;;1.30;;
62037;SDS011;47991;42.974;12.082;2024-01-07T08:36:53;1.70;;;1.20;;
62037;SDS011;47991;42.974;12.082;2024-01-07T08:39:22;3.80;;;2.00;;
62037;SDS011;47991;42.974;12.082;2024-01-07T08:41:51;2.50;;;1.20;;
62037;SDS011;47991;42.974;12.082;2024-01-07T08:44:18;1.60;;;1.20;;
62037;SDS011;47991;42.974;12.082;2024-01-07T08:46:45;2.10;;;1.40;;
62037;SDS011;47991;42.974;12.082;2024-01-07T08:49:12;1.70;;;1.10;;
62037;SDS011;47991;42.974;12.082;2024-01-07T08:51:40;1.20;;;1.10;;
62037;SDS011;47991;42.974;12.082;2024-01-07T08:54:07;1.70;;;1.30;;
62037;SDS011;47991;42.974;12.082;2024-01-07T08:56:33;2.00;;;1.30;;
62037;SDS011;47991;42.974;12.082;2024-01-07T08:59:00;1.40;;;1.20;;
62037;SDS011;47991;42.974;12.082;2024-01-07T09:01:27;1.40;;;1.00;;
62037;SDS011;47991;42.974;12.082;2024-01-07T09:03:54;1.60;;;1.10;;
62037;SDS011;47991;42.974;12.082;2024-01-07T09:06:21;5.90;;;1.20;;
62037;SDS011;47991;42.974;12.082;2024-01-07T09:08:48;2.30;;;1.60;;
62037;SDS011;47991;42.974;12.082;2024-01-07T09:11:18;1.60;;;1.20;;
62037;SDS011;47991;42.974;12.082;2024-01-07T09:13:45;1.50;;;1.00;;
62037;SDS011;47991;42.974;12.082;2024-01-07T09:16:15;1.00;;;0.80;;
62037;SDS011;47991;42.974;12.082;2024-01-07T09:18:42;2.30;;;0.90;;
62037;SDS011;47991;42.974;12.082;2024-01-07T09:21:12;2.20;;;1.00;;
62037;SDS011;47991;42.974;12.082;2024-01-07T09:23:40;1.60;;;1.00;;
62037;SDS011;47991;42.974;12.082;2024-01-07T09:26:08;1.50;;;0.90;;
62037;SDS011;47991;42.974;12.082;2024-01-07T09:28:35;1.70;;;1.20;;
62037;SDS011;47991;42.974;12.082;2024-01-07T09:31:02;1.00;;;0.90;;
62037;SDS011;47991;42.974;12.082;2024-01-07T09:33:29;1.60;;;1.20;;
62037;SDS011;47991;42.974;12.082;2024-01-07T09:35:56;1.20;;;1.00;;
62037;SDS011;47991;42.974;12.082;2024-01-07T09:38:23;0.80;;;0.80;;
62037;SDS011;47991;42.974;12.082;2024-01-07T09:40:52;3.70;;;0.90;;
62037;SDS011;47991;42.974;12.082;2024-01-07T09:43:20;1.40;;;0.90;;
62037;SDS011;47991;42.974;12.082;2024-01-07T09:45:47;0.80;;;0.80;;
62037;SDS011;47991;42.974;12.082;2024-01-07T09:48:15;5.60;;;1.40;;
62037;SDS011;47991;42.974;12.082;2024-01-07T09:50:42;3.10;;;1.90;;
62037;SDS011;47991;42.974;12.082;2024-01-07T09:53:11;1.40;;;0.90;;
62037;SDS011;47991;42.974;12.082;2024-01-07T09:58:22;1.80;;;0.90;;
62037;SDS011;47991;42.974;12.082;2024-01-07T10:00:49;1.30;;;0.90;;
62037;SDS011;47991;42.974;12.082;2024-01-07T10:03:16;1.20;;;0.80;;
62037;SDS011;47991;42.974;12.082;2024-01-07T10:05:43;0.90;;;0.80;;
62037;SDS011;47991;42.974;12.082;2024-01-07T10:08:11;1.60;;;0.80;;
62037;SDS011;47991;42.974;12.082;2024-01-07T10:10:37;0.70;;;0.60;;
62037;SDS011;47991;42.974;12.082;2024-01-07T10:13:07;1.70;;;0.80;;
62037;SDS011;47991;42.974;12.082;2024-01-07T10:15:35;2.80;;;0.90;;
62037;SDS011;47991;42.974;12.082;2024-01-07T10:18:06;1.70;;;1.00;;
62037;SDS011;47991;42.974;12.082;2024-01-07T10:20:34;0.80;;;0.70;;
62037;SDS011;47991;42.974;12.082;2024-01-07T10:23:01;1.90;;;1.00;;
62037;SDS011;47991;42.974;12.082;2024-01-07T10:25:32;2.10;;;0.90;;
62037;SDS011;47991;42.974;12.082;2024-01-07T10:27:59;1.90;;;1.00;;
62037;SDS011;47991;42.974;12.082;2024-01-07T10:30:28;4.50;;;1.20;;
62037;SDS011;47991;42.974;12.082;2024-01-07T10:32:56;1.00;;;0.90;;
62037;SDS011;47991;42.974;12.082;2024-01-07T10:35:28;1.30;;;0.90;;
62037;SDS011;47991;42.974;12.082;2024-01-07T10:37:59;0.90;;;0.80;;
62037;SDS011;47991;42.974;12.082;2024-01-07T10:40:28;1.10;;;0.90;;
62037;SDS011;47991;42.974;12.082;2024-01-07T10:42:57;0.60;;;0.60;;
62037;SDS011;47991;42.974;12.082;2024-01-07T10:45:24;1.10;;;0.70;;
62037;SDS011;47991;42.974;12.082;2024-01-07T10:47:54;1.20;;;0.80;;
62037;SDS011;47991;42.974;12.082;2024-01-07T10:50:26;0.80;;;0.80;;
62037;SDS011;47991;42.974;12.082;2024-01-07T10:52:57;1.50;;;0.80;;
62037;SDS011;47991;42.974;12.082;2024-01-07T10:55:31;1.00;;;0.60;;
62037;SDS011;47991;42.974;12.082;2024-01-07T10:58:02;0.60;;;0.60;;
62037;SDS011;47991;42.974;12.082;2024-01-07T11:00:30;0.60;;;0.60;;
62037;SDS011;47991;42.974;12.082;2024-01-07T11:08:45;3.90;;;1.40;;
62037;SDS011;47991;42.974;12.082;2024-01-07T11:11:19;0.70;;;0.60;;
62037;SDS011;47991;42.974;12.082;2024-01-07T11:13:52;1.60;;;1.00;;
62037;SDS011;47991;42.974;12.082;2024-01-07T11:16:40;1.60;;;0.90;;
62037;SDS011;47991;42.974;12.082;2024-01-07T11:19:13;1.50;;;0.90;;
62037;SDS011;47991;42.974;12.082;2024-01-07T11:21:41;1.90;;;1.40;;
62037;SDS011;47991;42.974;12.082;2024-01-07T11:24:08;2.00;;;1.50;;
62037;SDS011;47991;42.974;12.082;2024-01-07T11:26:34;1.70;;;1.20;;
62037;SDS011;47991;42.974;12.082;2024-01-07T11:29:01;4.00;;;1.10;;
62037;SDS011;47991;42.974;12.082;2024-01-07T11:31:44;1.70;;;0.90;;
62037;SDS011;47991;42.974;12.082;2024-01-07T11:34:38;2.20;;;0.90;;
62037;SDS011;47991;42.974;12.082;2024-01-07T11:37:19;1.40;;;0.90;;
62037;SDS011;47991;42.974;12.082;2024-01-07T11:39:50;2.50;;;0.80;;
62037;SDS011;47991;42.974;12.082;2024-01-07T11:42:20;1.20;;;0.90;;
62037;SDS011;47991;42.974;12.082;2024-01-07T11:44:51;0.80;;;0.70;;
62037;SDS011;47991;42.974;12.082;2024-01-07T11:47:20;1.10;;;0.80;;
62037;SDS011;47991;42.974;12.082;2024-01-07T11:49:48;0.90;;;0.80;;
62037;SDS011;47991;42.974;12.082;2024-01-07T11:52:16;1.10;;;0.80;;
62037;SDS011;47991;42.974;12.082;2024-01-07T11:54:43;1.00;;;0.80;;
62037;SDS011;47991;42.974;12.082;2024-01-07T11:57:13;1.10;;;0.80;;
62037;SDS011;47991;42.974;12.082;2024-01-07T11:59:40;1.20;;;0.90;;
62037;SDS011;47991;42.974;12.082;2024-01-07T12:02:07;0.80;;;0.70;;
62037;SDS011;47991;42.974;12.082;2024-01-07T12:04:36;1.30;;;0.80;;
62037;SDS011;47991;42.974;12.082;2024-01-07T12:07:04;0.90;;;0.60;;
62037;SDS011;47991;42.974;12.082;2024-01-07T12:09:31;1.40;;;0.80;;
62037;SDS011;47991;42.974;12.082;2024-01-07T12:11:58;1.60;;;0.70;;
62037;SDS011;47991;42.974;12.082;2024-01-07T12:14:27;1.10;;;0.70;;
62037;SDS011;47991;42.974;12.082;2024-01-07T12:16:55;2.90;;;0.70;;
62037;SDS011;47991;42.974;12.082;2024-01-07T12:19:22;1.40;;;0.80;;
62037;SDS011;47991;42.974;12.082;2024-01-07T12:22:00;1.00;;;0.70;;
62037;SDS011;47991;42.974;12.082;2024-01-07T12:24:32;0.60;;;0.50;;
62037;SDS011;47991;42.974;12.082;2024-01-07T12:27:06;1.00;;;0.80;;
62037;SDS011;47991;42.974;12.082;2024-01-07T12:29:33;1.40;;;0.90;;
62037;SDS011;47991;42.974;12.082;2024-01-07T12:32:01;1.20;;;0.70;;
62037;SDS011;47991;42.974;12.082;2024-01-07T12:34:29;2.10;;;0.80;;
62037;SDS011;47991;42.974;12.082;2024-01-07T12:36:57;0.80;;;0.70;;
62037;SDS011;47991;42.974;12.082;2024-01-07T12:39:26;1.80;;;0.80;;
62037;SDS011;47991;42.974;12.082;2024-01-07T12:41:53;0.90;;;0.80;;
62037;SDS011;47991;42.974;12.082;2024-01-07T12:44:20;1.50;;;0.80;;
62037;SDS011;47991;42.974;12.082;2024-01-07T12:46:47;1.20;;;0.90;;
62037;SDS011;47991;42.974;12.082;2024-01-07T12:49:14;0.80;;;0.70;;
62037;SDS011;47991;42.974;12.082;2024-01-07T12:51:42;1.00;;;0.90;;
62037;SDS011;47991;42.974;12.082;2024-01-07T12:54:09;1.70;;;0.80;;
62037;SDS011;47991;42.974;12.082;2024-01-07T12:56:36;1.10;;;0.70;;
62037;SDS011;47991;42.974;12.082;2024-01-07T12:59:03;1.10;;;0.80;;
62037;SDS011;47991;42.974;12.082;2024-01-07T13:01:30;0.80;;;0.70;;
62037;SDS011;47991;42.974;12.082;2024-01-07T13:03:58;1.20;;;0.90;;
62037;SDS011;47991;42.974;12.082;2024-01-07T13:06:25;1.30;;;0.90;;
62037;SDS011;47991;42.974;12.082;2024-01-07T13:08:54;0.90;;;0.80;;
62037;SDS011;47991;42.974;12.082;2024-01-07T13:11:21;1.20;;;0.80;;
62037;SDS011;47991;42.974;12.082;2024-01-07T13:13:48;2.50;;;1.10;;
62037;SDS011;47991;42.974;12.082;2024-01-07T13:16:16;0.70;;;0.70;;
62037;SDS011;47991;42.974;12.082;2024-01-07T13:18:44;0.70;;;0.70;;
62037;SDS011;47991;42.974;12.082;2024-01-07T13:21:11;1.40;;;1.00;;
62037;SDS011;47991;42.974;12.082;2024-01-07T13:23:39;0.70;;;0.70;;
62037;SDS011;47991;42.974;12.082;2024-01-07T13:26:10;1.20;;;0.70;;
62037;SDS011;47991;42.974;12.082;2024-01-07T13:28:37;1.20;;;0.70;;
62037;SDS011;47991;42.974;12.082;2024-01-07T13:31:04;1.40;;;0.70;;
62037;SDS011;47991;42.974;12.082;2024-01-07T13:33:33;4.50;;;0.70;;
62037;SDS011;47991;42.974;12.082;2024-01-07T13:36:00;2.80;;;0.80;;
62037;SDS011;47991;42.974;12.082;2024-01-07T13:38:27;2.70;;;1.10;;
62037;SDS011;47991;42.974;12.082;2024-01-07T13:40:54;1.10;;;0.80;;
62037;SDS011;47991;42.974;12.082;2024-01-07T13:43:21;3.10;;;0.70;;
62037;SDS011;47991;42.974;12.082;2024-01-07T13:45:51;0.70;;;0.70;;
62037;SDS011;47991;42.974;12.082;2024-01-07T13:48:18;0.80;;;0.70;;
62037;SDS011;47991;42.974;12.082;2024-01-07T13:50:45;2.40;;;1.10;;
62037;SDS011;47991;42.974;12.082;2024-01-07T13:53:14;2.40;;;1.20;;
62037;SDS011;47991;42.974;12.082;2024-01-07T13:55:41;2.30;;;1.10;;
62037;SDS011;47991;42.974;12.082;2024-01-07T13:58:08;1.10;;;0.90;;
62037;SDS011;47991;42.974;12.082;2024-01-07T14:00:37;0.60;;;0.60;;
62037;SDS011;47991;42.974;12.082;2024-01-07T14:03:04;2.60;;;1.20;;
62037;SDS011;47991;42.974;12.082;2024-01-07T14:05:31;0.50;;;0.50;;
62037;SDS011;47991;42.974;12.082;2024-01-07T14:07:58;1.20;;;0.60;;
62037;SDS011;47991;42.974;12.082;2024-01-07T14:10:25;1.50;;;1.00;;
62037;SDS011;47991;42.974;12.082;2024-01-07T14:12:52;2.40;;;1.10;;
62037;SDS011;47991;42.974;12.082;2024-01-07T14:15:19;1.00;;;0.80;;
62037;SDS011;47991;42.974;12.082;2024-01-07T14:17:46;2.10;;;1.00;;
62037;SDS011;47991;42.974;12.082;2024-01-07T14:20:15;2.80;;;0.90;;
62037;SDS011;47991;42.974;12.082;2024-01-07T14:22:42;3.70;;;1.20;;
62037;SDS011;47991;42.974;12.082;2024-01-07T14:25:09;1.60;;;0.80;;
62037;SDS011;47991;42.974;12.082;2024-01-07T14:27:36;1.10;;;0.80;;
62037;SDS011;47991;42.974;12.082;2024-01-07T14:30:03;0.80;;;0.80;;
62037;SDS011;47991;42.974;12.082;2024-01-07T14:32:31;1.60;;;0.60;;
62037;SDS011;47991;42.974;12.082;2024-01-07T14:35:00;0.80;;;0.70;;
62037;SDS011;47991;42.974;12.082;2024-01-07T14:37:27;2.20;;;0.90;;
62037;SDS011;47991;42.974;12.082;2024-01-07T14:39:54;1.10;;;0.70;;